createdAt,value
2022-10-01T00:00:55.475Z,14.88
2022-10-01T00:04:19.424Z,14.93
2022-10-01T00:07:46.289Z,15.00
2022-10-01T00:11:37.128Z,14.98
2022-10-01T00:15:01.055Z,15.00
2022-10-01T00:18:29.666Z,14.99
2022-10-01T00:21:53.542Z,14.88
2022-10-01T00:25:15.126Z,14.45
2022-10-01T00:28:37.038Z,14.34
2022-10-01T00:32:01.580Z,14.40
2022-10-01T00:35:28.656Z,14.47
2022-10-01T00:38:52.855Z,14.26
2022-10-01T00:42:22.558Z,14.38
2022-10-01T00:45:48.683Z,14.58
2022-10-01T00:49:20.428Z,14.74
2022-10-01T00:52:48.608Z,14.87
2022-10-01T00:56:10.239Z,14.93
2022-10-01T00:59:34.559Z,14.99
2022-10-01T01:02:56.189Z,15.06
2022-10-01T01:06:20.282Z,15.10
2022-10-01T01:09:47.524Z,15.13
2022-10-01T01:13:29.645Z,15.12
2022-10-01T01:17:00.128Z,15.16
2022-10-01T01:20:31.139Z,15.12
2022-10-01T01:24:23.133Z,15.10
2022-10-01T01:28:08.480Z,15.09
2022-10-01T01:31:39.900Z,15.09
2022-10-01T01:35:05.631Z,15.05
2022-10-01T01:38:37.861Z,14.95
2022-10-01T01:42:06.509Z,14.96
2022-10-01T01:45:31.974Z,14.98
2022-10-01T01:48:58.327Z,14.99
2022-10-01T01:52:22.314Z,15.00
2022-10-01T01:55:45.894Z,15.02
2022-10-01T01:59:08.535Z,15.03
2022-10-01T02:02:34.043Z,15.03
2022-10-01T02:06:14.486Z,14.99
2022-10-01T02:10:18.018Z,14.96
2022-10-01T02:14:17.335Z,14.98
2022-10-01T02:17:54.479Z,14.96
2022-10-01T02:21:34.655Z,14.96
2022-10-01T02:24:59.936Z,14.81
2022-10-01T02:28:23.553Z,14.82
2022-10-01T02:31:53.416Z,14.85
2022-10-01T02:35:20.051Z,14.84
2022-10-01T02:38:47.111Z,14.81
2022-10-01T02:42:14.702Z,14.84
2022-10-01T02:45:43.628Z,14.84
2022-10-01T02:49:05.240Z,14.84
2022-10-01T02:52:41.314Z,14.84
2022-10-01T02:56:04.496Z,14.87
2022-10-01T02:59:28.252Z,14.88
2022-10-01T03:02:50.396Z,14.88
2022-10-01T03:06:11.978Z,14.72
2022-10-01T03:09:37.361Z,14.75
2022-10-01T03:13:01.670Z,14.79
2022-10-01T03:16:25.540Z,14.64
2022-10-01T03:19:49.609Z,14.64
2022-10-01T03:23:13.196Z,14.47
2022-10-01T03:26:34.854Z,14.44
2022-10-01T03:29:58.688Z,14.47
2022-10-01T03:33:20.227Z,14.56
2022-10-01T03:36:41.718Z,14.65
2022-10-01T03:40:06.396Z,14.70
2022-10-01T03:43:30.457Z,14.57
2022-10-01T03:46:54.851Z,14.29
2022-10-01T03:50:16.368Z,14.29
2022-10-01T03:53:40.230Z,14.50
2022-10-01T03:57:02.374Z,14.52
2022-10-01T04:00:26.389Z,14.65
2022-10-01T04:03:49.987Z,14.74
2022-10-01T04:07:14.240Z,14.84
2022-10-01T04:10:35.837Z,14.88
2022-10-01T04:14:00.204Z,14.92
2022-10-01T04:17:22.187Z,14.75
2022-10-01T04:20:46.236Z,14.78
2022-10-01T04:24:10.118Z,14.84
2022-10-01T04:27:31.652Z,14.85
2022-10-01T04:31:13.195Z,14.79
2022-10-01T04:34:52.949Z,14.87
2022-10-01T04:38:19.757Z,14.92
2022-10-01T04:41:41.292Z,14.91
2022-10-01T04:45:02.823Z,14.93
2022-10-01T04:48:24.628Z,14.85
2022-10-01T04:51:48.908Z,14.77
2022-10-01T04:55:11.317Z,14.84
2022-10-01T04:58:35.074Z,14.87
2022-10-01T05:01:56.619Z,14.92
2022-10-01T05:05:20.130Z,14.98
2022-10-01T05:08:41.687Z,14.96
2022-10-01T05:12:03.230Z,14.95
2022-10-01T05:15:24.783Z,14.96
2022-10-01T05:18:48.424Z,14.98
2022-10-01T05:22:15.536Z,14.41
2022-10-01T05:25:42.789Z,14.37
2022-10-01T05:29:04.630Z,14.30
2022-10-01T05:32:26.158Z,14.47
2022-10-01T05:35:47.919Z,14.58
2022-10-01T05:39:09.566Z,14.71
2022-10-01T05:42:33.577Z,14.82
2022-10-01T05:46:03.408Z,14.85
2022-10-01T05:49:25.620Z,14.93
2022-10-01T05:52:53.432Z,14.96
2022-10-01T05:56:15.501Z,15.02
2022-10-01T05:59:41.831Z,15.02
2022-10-01T06:03:06.443Z,14.99
2022-10-01T06:06:30.623Z,14.92
2022-10-01T06:09:52.171Z,14.95
2022-10-01T06:13:17.674Z,15.02
2022-10-01T06:16:39.286Z,14.85
2022-10-01T06:20:01.260Z,14.95
2022-10-01T06:23:25.525Z,15.05
2022-10-01T06:26:50.128Z,15.09
2022-10-01T06:30:12.038Z,15.13
2022-10-01T06:33:33.776Z,15.16
2022-10-01T06:36:55.476Z,15.22
2022-10-01T06:40:17.020Z,15.26
2022-10-01T06:43:39.064Z,15.29
2022-10-01T06:47:00.593Z,15.30
2022-10-01T06:50:22.873Z,15.20
2022-10-01T06:53:44.412Z,15.20
2022-10-01T06:57:06.053Z,15.26
2022-10-01T07:00:29.925Z,15.25
2022-10-01T07:03:54.359Z,15.18
2022-10-01T07:07:15.945Z,15.10
2022-10-01T07:10:38.123Z,15.10
2022-10-01T07:14:01.474Z,15.16
2022-10-01T07:17:23.094Z,15.29
2022-10-01T07:20:44.666Z,15.37
2022-10-01T07:24:06.484Z,15.46
2022-10-01T07:27:28.103Z,15.51
2022-10-01T07:31:07.288Z,15.61
2022-10-01T07:34:31.108Z,15.64
2022-10-01T07:37:55.423Z,15.71
2022-10-01T07:41:17.849Z,15.60
2022-10-01T07:44:39.400Z,15.73
2022-10-01T07:48:05.816Z,15.81
2022-10-01T07:51:30.108Z,15.85
2022-10-01T07:54:51.623Z,15.70
2022-10-01T07:58:13.265Z,15.71
2022-10-01T08:01:38.110Z,15.75
2022-10-01T08:05:17.606Z,15.78
2022-10-01T08:08:41.897Z,15.84
2022-10-01T08:12:03.641Z,15.94
2022-10-01T08:15:28.693Z,16.39
2022-10-01T08:18:51.155Z,16.40
2022-10-01T08:22:15.784Z,16.97
2022-10-01T08:25:38.158Z,17.28
2022-10-01T08:28:59.639Z,17.53
2022-10-01T08:32:25.460Z,17.32
2022-10-01T08:35:49.482Z,17.24
2022-10-01T08:39:12.718Z,17.15
2022-10-01T08:42:46.144Z,16.30
2022-10-01T08:46:15.104Z,16.32
2022-10-01T08:49:42.352Z,16.39
2022-10-01T08:53:07.612Z,16.36
2022-10-01T08:56:35.507Z,16.32
2022-10-01T09:00:10.435Z,16.39
2022-10-01T09:03:35.062Z,16.34
2022-10-01T09:07:21.384Z,16.34
2022-10-01T09:10:45.674Z,16.49
2022-10-01T09:14:18.233Z,16.59
2022-10-01T09:17:43.930Z,16.64
2022-10-01T09:21:25.053Z,16.69
2022-10-01T09:24:54.795Z,16.73
2022-10-01T09:28:24.091Z,16.81
2022-10-01T09:31:50.340Z,16.61
2022-10-01T09:35:31.413Z,16.71
2022-10-01T09:39:08.943Z,16.59
2022-10-01T09:42:33.038Z,16.53
2022-10-01T09:45:57.384Z,17.15
2022-10-01T09:49:39.710Z,16.92
2022-10-01T09:53:02.214Z,16.77
2022-10-01T09:56:34.112Z,16.97
2022-10-01T10:00:04.097Z,17.22
2022-10-01T10:03:31.391Z,17.18
2022-10-01T10:07:03.918Z,17.19
2022-10-01T10:10:36.968Z,17.91
2022-10-01T10:14:03.664Z,18.59
2022-10-01T10:17:27.278Z,18.15
2022-10-01T10:20:52.761Z,18.08
2022-10-01T10:24:47.160Z,17.77
2022-10-01T10:28:23.741Z,18.10
2022-10-01T10:31:46.538Z,18.86
2022-10-01T10:35:13.546Z,19.04
2022-10-01T10:38:40.821Z,18.75
2022-10-01T10:42:05.794Z,19.44
2022-10-01T10:45:41.770Z,18.99
2022-10-01T10:49:18.478Z,19.28
2022-10-01T10:52:43.727Z,18.93
2022-10-01T10:56:21.910Z,19.27
2022-10-01T11:00:00.635Z,19.96
2022-10-01T11:03:27.853Z,20.03
2022-10-01T11:07:06.305Z,19.18
2022-10-01T11:10:43.104Z,18.82
2022-10-01T11:14:23.783Z,19.31
2022-10-01T11:18:17.837Z,19.13
2022-10-01T11:21:48.687Z,19.07
2022-10-01T11:25:42.108Z,19.82
2022-10-01T11:29:36.059Z,20.30
2022-10-01T11:33:10.737Z,20.13
2022-10-01T11:37:13.580Z,19.96
2022-10-01T11:40:41.119Z,19.38
2022-10-01T11:44:38.581Z,19.57
2022-10-01T11:48:54.038Z,18.99
2022-10-01T11:52:32.694Z,19.02
2022-10-01T11:56:14.604Z,18.97
2022-10-01T11:59:54.452Z,19.57
2022-10-01T12:03:21.584Z,19.69
2022-10-01T12:07:01.557Z,19.50
2022-10-01T12:10:41.816Z,19.71
2022-10-01T12:14:18.212Z,19.96
2022-10-01T12:18:06.106Z,19.59
2022-10-01T12:21:33.833Z,19.66
2022-10-01T12:24:55.780Z,19.61
2022-10-01T12:28:31.223Z,19.59
2022-10-01T12:32:06.255Z,19.41
2022-10-01T12:35:56.974Z,19.27
2022-10-01T12:39:34.327Z,19.34
2022-10-01T12:43:07.928Z,19.24
2022-10-01T12:47:11.394Z,19.24
2022-10-01T12:51:06.797Z,19.18
2022-10-01T12:55:07.204Z,19.23
2022-10-01T12:58:56.560Z,19.24
2022-10-01T13:02:27.233Z,19.18
2022-10-01T13:06:22.524Z,19.27
2022-10-01T13:10:08.487Z,19.39
2022-10-01T13:13:38.775Z,19.93
2022-10-01T13:17:10.204Z,20.17
2022-10-01T13:20:54.217Z,20.13
2022-10-01T13:24:42.502Z,19.81
2022-10-01T13:28:10.981Z,19.74
2022-10-01T13:31:39.554Z,19.59
2022-10-01T13:35:23.982Z,19.72
2022-10-01T13:38:50.343Z,19.86
2022-10-01T13:42:30.100Z,19.89
2022-10-01T13:45:54.746Z,19.97
2022-10-01T13:49:36.607Z,20.03
2022-10-01T13:53:08.345Z,19.89
2022-10-01T13:56:35.118Z,19.76
2022-10-01T14:00:03.046Z,19.68
2022-10-01T14:03:39.318Z,19.50
2022-10-01T14:07:11.489Z,19.43
2022-10-01T14:11:02.247Z,19.23
2022-10-01T14:14:56.127Z,18.77
2022-10-01T14:18:26.610Z,18.63
2022-10-01T14:22:12.100Z,18.49
2022-10-01T14:25:44.197Z,18.49
2022-10-01T14:29:37.873Z,18.37
2022-10-01T14:33:23.180Z,18.52
2022-10-01T14:36:48.241Z,18.66
2022-10-01T14:40:25.100Z,18.73
2022-10-01T14:44:19.579Z,18.73
2022-10-01T14:47:46.063Z,18.68
2022-10-01T14:51:23.287Z,18.63
2022-10-01T14:55:02.030Z,18.56
2022-10-01T14:58:39.226Z,18.58
2022-10-01T15:02:04.504Z,18.51
2022-10-01T15:05:27.967Z,18.52
2022-10-01T15:08:54.893Z,18.52
2022-10-01T15:12:20.965Z,18.45
2022-10-01T15:15:43.145Z,18.34
2022-10-01T15:19:10.009Z,18.27
2022-10-01T15:22:35.915Z,18.08
2022-10-01T15:26:00.210Z,18.03
2022-10-01T15:29:24.006Z,17.97
2022-10-01T15:32:48.241Z,17.75
2022-10-01T15:36:17.276Z,17.70
2022-10-01T15:39:41.335Z,17.69
2022-10-01T15:43:14.669Z,17.59
2022-10-01T15:46:36.735Z,17.63
2022-10-01T15:50:13.677Z,17.65
2022-10-01T15:53:35.529Z,17.57
2022-10-01T15:56:57.452Z,17.52
2022-10-01T16:00:24.803Z,17.52
2022-10-01T16:04:09.399Z,17.53
2022-10-01T16:07:35.412Z,17.40
2022-10-01T16:11:31.913Z,17.29
2022-10-01T16:15:04.546Z,17.07
2022-10-01T16:18:30.622Z,17.04
2022-10-01T16:22:28.747Z,17.06
2022-10-01T16:25:50.463Z,17.00
2022-10-01T16:29:12.060Z,16.98
2022-10-01T16:32:36.474Z,16.92
2022-10-01T16:36:09.821Z,16.92
2022-10-01T16:39:31.364Z,16.83
2022-10-01T16:42:56.473Z,16.70
2022-10-01T16:46:18.162Z,16.73
2022-10-01T16:49:39.760Z,16.59
2022-10-01T16:53:04.359Z,16.63
2022-10-01T16:56:27.294Z,16.63
2022-10-01T16:59:51.448Z,16.66
2022-10-01T17:03:17.655Z,16.66
2022-10-01T17:06:41.879Z,16.67
2022-10-01T17:10:06.424Z,16.63
2022-10-01T17:13:34.793Z,16.64
2022-10-01T17:16:56.406Z,16.64
2022-10-01T17:20:18.190Z,16.63
2022-10-01T17:23:39.917Z,16.56
2022-10-01T17:27:03.974Z,16.52
2022-10-01T17:30:26.592Z,16.46
2022-10-01T17:33:48.140Z,16.40
2022-10-01T17:37:09.597Z,16.34
2022-10-01T17:40:34.222Z,16.38
2022-10-01T17:43:55.714Z,16.23
2022-10-01T17:47:19.728Z,16.22
2022-10-01T17:50:44.639Z,16.23
2022-10-01T17:54:08.487Z,16.26
2022-10-01T17:57:32.521Z,16.28
2022-10-01T18:00:54.248Z,16.30
2022-10-01T18:04:15.802Z,16.29
2022-10-01T18:07:37.375Z,16.26
2022-10-01T18:11:12.417Z,16.23
2022-10-01T18:14:36.272Z,16.21
2022-10-01T18:19:03.574Z,16.21
2022-10-01T18:21:39.330Z,16.21
2022-10-01T18:25:00.927Z,16.23
2022-10-01T18:28:27.080Z,16.26
2022-10-01T18:32:25.202Z,16.22
2022-10-01T18:35:52.999Z,16.18
2022-10-01T18:39:38.433Z,16.13
2022-10-01T18:43:06.735Z,16.09
2022-10-01T18:46:42.248Z,16.06
2022-10-01T18:50:33.157Z,15.85
2022-10-01T18:54:09.292Z,15.73
2022-10-01T18:57:32.322Z,15.84
2022-10-01T19:00:56.874Z,15.91
2022-10-01T19:04:46.131Z,15.87
2022-10-01T19:08:13.534Z,15.83
2022-10-01T19:12:22.991Z,15.75
2022-10-01T19:16:31.151Z,15.50
2022-10-01T19:20:11.148Z,15.51
2022-10-01T19:24:00.124Z,15.53
2022-10-01T19:27:42.919Z,15.47
2022-10-01T19:31:12.772Z,15.49
2022-10-01T19:34:41.451Z,15.25
2022-10-01T19:38:17.159Z,15.20
2022-10-01T19:41:51.428Z,15.35
2022-10-01T19:45:24.187Z,15.26
2022-10-01T19:49:08.604Z,15.23
2022-10-01T19:52:34.913Z,15.30
2022-10-01T19:56:00.808Z,15.47
2022-10-01T19:59:22.470Z,15.61
2022-10-01T20:03:02.621Z,15.73
2022-10-01T20:06:48.628Z,15.71
2022-10-01T20:10:18.922Z,15.85
2022-10-01T20:14:07.055Z,15.83
2022-10-01T20:17:37.750Z,15.46
2022-10-01T20:21:20.929Z,15.39
2022-10-01T20:25:05.328Z,15.30
2022-10-01T20:28:52.006Z,15.42
2022-10-01T20:32:26.889Z,15.54
2022-10-01T20:36:35.075Z,15.60
2022-10-01T20:40:10.826Z,15.68
2022-10-01T20:43:35.436Z,15.61
2022-10-01T20:47:04.547Z,15.74
2022-10-01T20:50:34.075Z,15.61
2022-10-01T20:54:05.953Z,15.60
2022-10-01T20:57:42.059Z,15.58
2022-10-01T21:01:13.199Z,15.37
2022-10-01T21:04:38.967Z,15.36
2022-10-01T21:08:21.683Z,15.37
2022-10-01T21:11:49.834Z,15.51
2022-10-01T21:15:17.417Z,15.39
2022-10-01T21:19:17.355Z,15.27
2022-10-01T21:23:04.804Z,15.35
2022-10-01T21:26:54.268Z,15.22
2022-10-01T21:30:21.319Z,15.00
2022-10-01T21:34:12.084Z,14.95
2022-10-01T21:37:40.971Z,14.93
2022-10-01T21:41:24.118Z,14.93
2022-10-01T21:44:48.802Z,14.84
2022-10-01T21:48:41.933Z,14.91
2022-10-01T21:52:21.850Z,14.91
2022-10-01T21:55:52.030Z,14.89
2022-10-01T21:59:35.225Z,14.84
2022-10-01T22:03:37.041Z,14.74
2022-10-01T22:07:25.610Z,14.85
2022-10-01T22:10:51.640Z,14.74
2022-10-01T22:14:16.919Z,14.64
2022-10-01T22:17:41.958Z,14.58
2022-10-01T22:21:11.515Z,14.64
2022-10-01T22:24:39.444Z,14.72
2022-10-01T22:28:10.512Z,14.81
2022-10-01T22:31:40.348Z,14.79
2022-10-01T22:35:11.135Z,14.84
2022-10-01T22:38:42.303Z,14.48
2022-10-01T22:42:07.229Z,14.56
2022-10-01T22:45:40.681Z,14.67
2022-10-01T22:49:05.079Z,14.65
2022-10-01T22:53:03.531Z,14.56
2022-10-01T22:56:43.318Z,14.44
2022-10-01T23:00:12.971Z,14.54
2022-10-01T23:03:40.598Z,14.54
2022-10-01T23:07:29.545Z,14.51
2022-10-01T23:10:51.049Z,14.45
2022-10-01T23:14:21.323Z,14.52
2022-10-01T23:17:46.278Z,14.65
2022-10-01T23:21:10.776Z,14.68
2022-10-01T23:24:41.265Z,14.71
2022-10-01T23:28:22.372Z,14.64
2022-10-01T23:31:54.863Z,14.65
2022-10-01T23:35:29.980Z,14.63
2022-10-01T23:39:18.931Z,14.64
2022-10-01T23:42:58.771Z,14.64
2022-10-01T23:46:43.008Z,14.70
2022-10-01T23:50:07.813Z,14.67
2022-10-01T23:53:48.100Z,14.63
2022-10-01T23:57:12.684Z,14.64
